Time;durP1;ratioP1;P1;durP2;ratioP2;P2;SDS_P1;SDS_P2;PMS_P1;PMS_P2;Temp;Humidity;BMP_temperature;BMP_pressure;BME280_temperature;BME280_humidity;BME280_pressure;Samples;Min_cycle;Max_cycle;Signal;HPM_P1;HPM_P2
2022/07/02 00:01:05;;;;;;;7.35;6.40;;;12.00;99.90;;;;;;4680855;30;20053;-87
2022/07/02 00:03:33;;;;;;;10.13;7.15;;;12.00;99.90;;;;;;4665237;30;20042;-86
2022/07/02 00:06:02;;;;;;;10.13;7.70;;;12.00;99.90;;;;;;4680794;30;20530;-86
2022/07/02 00:08:28;;;;;;;8.07;6.90;;;12.00;99.90;;;;;;4679245;30;20057;-86
2022/07/02 00:10:56;;;;;;;7.88;6.63;;;12.00;99.90;;;;;;4680636;30;20046;-85
2022/07/02 00:13:23;;;;;;;8.90;6.60;;;12.00;99.90;;;;;;4679681;30;20050;-85
2022/07/02 00:15:49;;;;;;;7.75;6.90;;;11.80;99.90;;;;;;4682839;30;20037;-85
2022/07/02 00:18:16;;;;;;;7.32;6.53;;;11.90;99.90;;;;;;4679733;30;20129;-85
2022/07/02 00:20:43;;;;;;;8.98;6.88;;;11.90;99.90;;;;;;4665813;30;20379;-85
2022/07/02 00:23:09;;;;;;;9.77;7.90;;;11.80;99.90;;;;;;4679121;30;20045;-85
2022/07/02 00:25:44;;;;;;;9.55;7.25;;;11.70;99.90;;;;;;4709314;30;20053;-85
2022/07/02 00:28:16;;;;;;;7.68;6.70;;;11.70;99.90;;;;;;4680153;30;20084;-85
2022/07/02 00:30:45;;;;;;;12.18;8.20;;;11.70;99.90;;;;;;4668335;30;20506;-85
2022/07/02 00:33:15;;;;;;;8.48;7.43;;;11.60;99.90;;;;;;4683177;30;20526;-86
2022/07/02 00:35:42;;;;;;;13.05;8.00;;;11.60;99.90;;;;;;4679557;30;20038;-86
2022/07/02 00:38:08;;;;;;;9.45;7.45;;;11.60;99.90;;;;;;4680173;30;20050;-86
2022/07/02 00:40:34;;;;;;;8.07;7.28;;;11.50;99.90;;;;;;4679788;30;20045;-85
2022/07/02 00:43:00;;;;;;;8.20;7.40;;;11.60;99.90;;;;;;4665406;30;20073;-85
2022/07/02 00:45:27;;;;;;;9.00;8.10;;;11.60;99.90;;;;;;4679887;30;20046;-86
2022/07/02 00:47:56;;;;;;;7.63;6.93;;;11.50;99.90;;;;;;4679878;30;20104;-86
2022/07/02 00:50:22;;;;;;;11.02;9.35;;;11.50;99.90;;;;;;4679587;30;20038;-85
2022/07/02 00:52:48;;;;;;;8.55;7.70;;;11.50;99.90;;;;;;4679537;30;20141;-86
2022/07/02 00:55:14;;;;;;;9.50;8.23;;;11.50;99.90;;;;;;4679461;30;20511;-86
2022/07/02 00:57:40;;;;;;;8.98;8.13;;;11.40;99.90;;;;;;4679218;30;20128;-86
2022/07/02 01:00:09;;;;;;;8.93;8.02;;;11.40;99.90;;;;;;4705198;30;20054;-86
2022/07/02 01:02:37;;;;;;;8.82;7.70;;;11.40;99.90;;;;;;4679461;30;20042;-86
2022/07/02 01:05:03;;;;;;;9.77;8.77;;;11.40;99.90;;;;;;4708942;30;20495;-86
2022/07/02 01:07:30;;;;;;;9.35;8.38;;;11.30;99.90;;;;;;4679431;30;20050;-86
2022/07/02 01:10:16;;;;;;;9.98;8.98;;;11.40;99.90;;;;;;4679273;30;20516;-86
2022/07/02 01:12:45;;;;;;;11.38;9.13;;;11.40;99.90;;;;;;4679672;30;20076;-86
2022/07/02 01:15:12;;;;;;;10.55;9.48;;;11.40;99.90;;;;;;4679498;30;20042;-86
2022/07/02 01:17:37;;;;;;;9.10;8.23;;;11.30;99.90;;;;;;4681244;30;20501;-86
2022/07/02 01:20:04;;;;;;;10.93;9.65;;;11.40;99.90;;;;;;4682980;30;20089;-86
2022/07/02 01:22:38;;;;;;;11.10;9.20;;;11.40;99.90;;;;;;4682754;30;20097;-85
2022/07/02 01:25:06;;;;;;;10.23;8.35;;;11.30;99.90;;;;;;4682475;30;20129;-85
2022/07/02 01:27:31;;;;;;;10.70;8.55;;;11.40;99.90;;;;;;4682518;30;20127;-86
2022/07/02 01:29:57;;;;;;;10.82;8.88;;;11.40;99.90;;;;;;4682534;30;20041;-86
2022/07/02 01:32:23;;;;;;;15.30;8.77;;;11.30;99.90;;;;;;4682686;30;20046;-86
2022/07/02 01:35:00;;;;;;;10.13;9.10;;;11.30;99.90;;;;;;4668330;30;20512;-86
2022/07/02 01:37:25;;;;;;;10.43;9.10;;;11.30;99.90;;;;;;4668657;30;20054;-86
2022/07/02 01:39:51;;;;;;;12.98;9.73;;;11.40;99.90;;;;;;4683041;30;20701;-86
2022/07/02 01:42:17;;;;;;;14.82;9.18;;;11.40;99.90;;;;;;4683136;30;20156;-86
2022/07/02 01:44:44;;;;;;;11.68;8.88;;;11.40;99.90;;;;;;4682045;30;20049;-86
2022/07/02 01:47:10;;;;;;;10.55;9.48;;;11.30;99.90;;;;;;4681948;30;20057;-86
2022/07/02 01:49:37;;;;;;;13.90;9.85;;;11.30;99.90;;;;;;4682178;30;20049;-85
2022/07/02 01:52:04;;;;;;;12.13;10.48;;;11.30;99.90;;;;;;4682724;30;20494;-86
2022/07/02 01:54:29;;;;;;;11.00;9.85;;;11.30;99.90;;;;;;4681549;30;20562;-85
2022/07/02 01:56:56;;;;;;;11.23;10.05;;;11.30;99.90;;;;;;4682582;30;20137;-86
2022/07/02 01:59:21;;;;;;;10.77;9.63;;;11.30;99.90;;;;;;4681928;30;20132;-86
2022/07/02 02:01:47;;;;;;;11.23;10.00;;;11.30;99.90;;;;;;4667610;30;20133;-86
2022/07/02 02:04:13;;;;;;;12.18;10.90;;;11.20;99.90;;;;;;4681855;30;20053;-85
2022/07/02 02:06:39;;;;;;;12.60;11.30;;;11.30;99.90;;;;;;4682176;30;20506;-86
2022/07/02 02:09:06;;;;;;;13.20;10.45;;;11.30;99.90;;;;;;4666941;30;20458;-86
2022/07/02 02:11:32;;;;;;;13.23;11.77;;;11.30;99.90;;;;;;4682502;30;20041;-86
2022/07/02 02:13:58;;;;;;;12.40;11.18;;;11.30;99.90;;;;;;4682765;30;20050;-86
2022/07/02 02:16:28;;;;;;;13.00;11.73;;;11.20;99.90;;;;;;4682387;30;20132;-85
2022/07/02 02:18:56;;;;;;;12.95;11.50;;;11.20;99.90;;;;;;4681138;30;20037;-86
2022/07/02 02:21:24;;;;;;;15.10;12.40;;;11.20;99.90;;;;;;4681624;30;20108;-86
2022/07/02 02:23:50;;;;;;;14.43;11.93;;;11.20;99.90;;;;;;4667792;30;20056;-86
2022/07/02 02:26:15;;;;;;;12.80;11.50;;;11.20;99.90;;;;;;4667959;30;20422;-86
2022/07/02 02:28:41;;;;;;;14.25;12.85;;;11.30;99.90;;;;;;4680894;30;20173;-85
2022/07/02 02:31:07;;;;;;;13.68;12.05;;;11.20;99.90;;;;;;4709385;30;20045;-86
2022/07/02 02:33:32;;;;;;;14.35;12.85;;;11.20;99.90;;;;;;4681825;30;20049;-85
2022/07/02 02:35:58;;;;;;;14.18;12.88;;;11.30;99.90;;;;;;4682312;30;20042;-85
2022/07/02 02:38:25;;;;;;;14.23;12.80;;;11.20;99.90;;;;;;4681257;30;20042;-85
2022/07/02 02:40:50;;;;;;;15.35;13.75;;;11.20;99.90;;;;;;4681111;30;20443;-85
2022/07/02 02:43:16;;;;;;;15.35;13.85;;;11.20;99.90;;;;;;4680891;30;20046;-85
2022/07/02 02:45:41;;;;;;;15.13;13.55;;;11.20;99.90;;;;;;4681446;30;20050;-85
2022/07/02 02:48:07;;;;;;;15.85;13.75;;;11.10;99.90;;;;;;4681648;30;20060;-86
2022/07/02 02:50:33;;;;;;;16.42;13.93;;;11.10;99.90;;;;;;4681286;30;20093;-86
2022/07/02 02:52:58;;;;;;;16.17;13.20;;;11.10;99.90;;;;;;4666790;30;20089;-85
2022/07/02 02:55:24;;;;;;;18.33;15.32;;;11.10;99.90;;;;;;4681499;30;20049;-85
2022/07/02 02:57:49;;;;;;;18.10;16.33;;;11.10;99.90;;;;;;4665352;30;20082;-85
2022/07/02 03:00:15;;;;;;;16.27;14.70;;;11.10;99.90;;;;;;4667285;30;20038;-85
2022/07/02 03:02:41;;;;;;;15.95;14.45;;;11.10;99.90;;;;;;4674993;30;20046;-85
2022/07/02 03:05:07;;;;;;;15.57;13.85;;;11.10;99.90;;;;;;4667013;30;20494;-85
2022/07/02 03:07:33;;;;;;;17.83;15.68;;;11.10;99.90;;;;;;4666788;30;20050;-85
2022/07/02 03:09:58;;;;;;;17.98;16.35;;;11.10;99.90;;;;;;4709349;30;20053;-85
2022/07/02 03:12:25;;;;;;;18.33;16.40;;;11.10;99.90;;;;;;4666597;30;20038;-85
2022/07/02 03:14:51;;;;;;;18.20;16.10;;;11.10;99.90;;;;;;4670395;30;20069;-85
2022/07/02 03:17:17;;;;;;;18.48;15.80;;;11.10;99.90;;;;;;4695873;30;20506;-85
2022/07/02 03:19:43;;;;;;;15.80;14.18;;;11.10;99.90;;;;;;4694562;30;20085;-85
2022/07/02 03:22:09;;;;;;;18.42;16.52;;;11.10;99.90;;;;;;4666849;30;20049;-86
2022/07/02 03:24:35;;;;;;;18.30;16.60;;;11.10;99.90;;;;;;4680807;30;20050;-85
2022/07/02 03:27:00;;;;;;;19.05;17.27;;;11.10;99.90;;;;;;4694704;30;20502;-85
2022/07/02 03:29:26;;;;;;;17.38;15.68;;;11.10;99.90;;;;;;4665882;30;20386;-85
2022/07/02 03:31:51;;;;;;;17.70;16.00;;;11.10;99.90;;;;;;4656250;30;20034;-85
2022/07/02 03:34:17;;;;;;;17.60;15.88;;;11.00;99.90;;;;;;4695095;30;20042;-85
2022/07/02 03:36:43;;;;;;;19.25;17.35;;;11.20;99.90;;;;;;4681350;30;20120;-86
2022/07/02 03:39:08;;;;;;;19.20;17.33;;;11.10;99.90;;;;;;4665660;30;20129;-85
2022/07/02 03:41:34;;;;;;;19.20;17.35;;;11.10;99.90;;;;;;4690272;30;20049;-86
2022/07/02 03:43:59;;;;;;;18.77;16.80;;;11.20;99.90;;;;;;4666642;30;20058;-86
2022/07/02 03:46:25;;;;;;;19.65;17.45;;;11.10;99.90;;;;;;4666737;30;20046;-85
2022/07/02 03:48:51;;;;;;;18.77;16.88;;;11.10;99.90;;;;;;4666723;30;20470;-85
2022/07/02 03:51:16;;;;;;;18.83;17.05;;;11.00;99.90;;;;;;4680101;30;20048;-86
2022/07/02 03:53:42;;;;;;;20.02;18.17;;;11.00;99.90;;;;;;4680126;30;20117;-86
2022/07/02 03:56:08;;;;;;;20.48;18.55;;;11.10;99.90;;;;;;4680888;30;20053;-85
2022/07/02 03:58:33;;;;;;;22.20;19.92;;;11.10;99.90;;;;;;4680519;30;20050;-85
2022/07/02 04:00:59;;;;;;;21.98;19.77;;;11.00;99.90;;;;;;4666108;30;20073;-86
2022/07/02 04:03:25;;;;;;;19.42;17.52;;;11.00;99.90;;;;;;4660301;30;20449;-86
2022/07/02 04:05:50;;;;;;;20.75;18.60;;;11.10;99.90;;;;;;4666278;30;20129;-86
2022/07/02 04:08:16;;;;;;;21.52;19.33;;;11.10;99.90;;;;;;4666030;30;20046;-85
2022/07/02 04:10:42;;;;;;;20.55;18.63;;;11.00;99.90;;;;;;4665703;30;20038;-86
2022/07/02 04:13:10;;;;;;;21.75;19.52;;;11.10;99.90;;;;;;4669986;30;20056;-85
2022/07/02 04:15:35;;;;;;;22.20;20.10;;;11.10;99.90;;;;;;4694960;30;20049;-85
2022/07/02 04:18:01;;;;;;;21.25;19.05;;;11.10;99.90;;;;;;4693747;30;20054;-85
2022/07/02 04:20:27;;;;;;;21.45;19.23;;;11.20;99.90;;;;;;4660139;30;20046;-85
2022/07/02 04:22:52;;;;;;;20.25;18.27;;;11.30;99.90;;;;;;4662529;30;20050;-85
2022/07/02 04:25:18;;;;;;;19.95;17.88;;;11.20;99.90;;;;;;4670579;30;20042;-85
2022/07/02 04:27:44;;;;;;;20.30;18.40;;;11.30;99.90;;;;;;4677318;30;20058;-85
2022/07/02 04:30:10;;;;;;;21.40;19.48;;;11.40;99.90;;;;;;4703131;30;20043;-85
2022/07/02 04:32:36;;;;;;;18.58;16.73;;;11.50;99.90;;;;;;4679617;30;20054;-86
2022/07/02 04:35:02;;;;;;;18.83;16.70;;;11.60;99.90;;;;;;4664850;30;20046;-85
2022/07/02 04:37:27;;;;;;;18.38;16.15;;;11.80;99.90;;;;;;4679986;30;20198;-85
2022/07/02 04:39:53;;;;;;;17.10;15.50;;;11.90;99.90;;;;;;4665824;30;20470;-85
2022/07/02 04:42:18;;;;;;;16.67;14.88;;;12.10;99.90;;;;;;4680527;30;20426;-86
2022/07/02 04:44:44;;;;;;;14.60;13.07;;;12.20;99.90;;;;;;4681291;30;20049;-85
2022/07/02 04:47:10;;;;;;;15.85;14.23;;;12.40;99.90;;;;;;4664691;30;20046;-85
2022/07/02 04:49:35;;;;;;;16.42;14.45;;;12.60;99.90;;;;;;4679317;30;20406;-85
2022/07/02 04:52:01;;;;;;;14.52;12.90;;;12.80;99.90;;;;;;4680829;30;20458;-85
2022/07/02 04:54:27;;;;;;;12.32;11.05;;;13.00;99.90;;;;;;4682356;30;20050;-86
2022/07/02 04:56:52;;;;;;;12.23;10.85;;;13.20;99.90;;;;;;4665339;30;20053;-86
2022/07/02 04:59:18;;;;;;;12.20;11.10;;;13.40;99.90;;;;;;4697609;30;20105;-86
2022/07/02 05:01:44;;;;;;;11.95;10.75;;;13.50;99.90;;;;;;4684282;30;20045;-85
2022/07/02 05:04:11;;;;;;;10.75;9.65;;;13.70;99.90;;;;;;4683776;30;20088;-86
2022/07/02 05:06:36;;;;;;;12.10;10.23;;;13.80;99.90;;;;;;4683255;30;20077;-86
2022/07/02 05:09:04;;;;;;;10.93;9.43;;;14.10;99.90;;;;;;4675378;30;20105;-85
2022/07/02 05:11:30;;;;;;;11.32;10.20;;;14.20;99.90;;;;;;4683798;30;20041;-85
2022/07/02 05:13:55;;;;;;;10.02;9.02;;;14.40;99.90;;;;;;4669166;30;20096;-85
2022/07/02 05:16:21;;;;;;;10.43;9.43;;;14.60;99.90;;;;;;4682514;30;20461;-86
2022/07/02 05:18:47;;;;;;;10.07;8.15;;;14.80;99.90;;;;;;4682663;30;20102;-86
2022/07/02 05:21:13;;;;;;;9.15;8.07;;;15.00;99.90;;;;;;4683432;30;20085;-86
2022/07/02 05:23:39;;;;;;;10.05;7.78;;;15.10;99.90;;;;;;4683250;30;20046;-85
2022/07/02 05:26:04;;;;;;;9.52;8.05;;;15.40;99.90;;;;;;4682962;30;20056;-86
2022/07/02 05:28:30;;;;;;;7.97;7.15;;;15.50;99.90;;;;;;4711390;30;20042;-86
2022/07/02 05:30:56;;;;;;;8.45;6.65;;;15.70;99.90;;;;;;4682476;30;20046;-85
2022/07/02 05:33:21;;;;;;;7.00;5.75;;;15.80;99.90;;;;;;4683057;30;20426;-86
2022/07/02 05:35:47;;;;;;;9.95;6.30;;;15.90;99.90;;;;;;4683277;30;20050;-86
2022/07/02 05:38:13;;;;;;;8.30;6.13;;;15.90;99.90;;;;;;4677737;30;20073;-85
2022/07/02 05:40:39;;;;;;;7.53;5.53;;;15.90;99.90;;;;;;4668539;30;20041;-86
2022/07/02 05:43:04;;;;;;;6.30;5.35;;;16.00;99.90;;;;;;4699099;30;20132;-86
2022/07/02 05:45:30;;;;;;;7.70;5.75;;;16.00;99.90;;;;;;4682508;30;20515;-86
2022/07/02 05:47:56;;;;;;;7.32;5.45;;;16.10;99.90;;;;;;4707557;30;20432;-86
2022/07/02 05:50:22;;;;;;;5.72;4.90;;;16.00;99.90;;;;;;4681759;30;20041;-86
2022/07/02 05:52:47;;;;;;;7.80;4.22;;;16.10;99.90;;;;;;4667510;30;20073;-87
2022/07/02 05:55:14;;;;;;;6.47;4.07;;;16.10;99.90;;;;;;4682799;30;20053;-86
2022/07/02 05:57:40;;;;;;;6.65;4.18;;;16.20;99.90;;;;;;4677625;30;20042;-86
2022/07/02 06:00:08;;;;;;;5.65;3.92;;;16.20;99.90;;;;;;4695750;30;20524;-86
2022/07/02 06:02:34;;;;;;;5.35;4.30;;;16.10;99.90;;;;;;4709470;30;20042;-86
2022/07/02 06:07:38;;;;;;;5.72;4.72;;;16.10;99.90;;;;;;4688428;30;20131;-86
2022/07/02 06:07:45;;;;;;;6.63;5.00;;;16.10;99.90;;;;;;4682310;30;20133;-86
2022/07/02 06:10:17;;;;;;;6.07;4.57;;;16.00;99.90;;;;;;4682435;30;20132;-85
2022/07/02 06:12:46;;;;;;;6.63;4.75;;;16.00;99.90;;;;;;4682210;30;20562;-86
2022/07/02 06:15:12;;;;;;;5.45;4.63;;;16.00;99.90;;;;;;4698395;30;20050;-86
2022/07/02 06:17:37;;;;;;;7.18;5.10;;;15.90;99.90;;;;;;4679426;30;20049;-86
2022/07/02 06:20:03;;;;;;;5.57;4.70;;;15.80;99.90;;;;;;4680107;30;20096;-85
2022/07/02 06:22:29;;;;;;;7.88;5.55;;;15.80;99.90;;;;;;4682384;30;20052;-85
2022/07/02 06:24:55;;;;;;;11.98;5.15;;;15.80;99.90;;;;;;4682013;30;20061;-86
2022/07/02 06:27:21;;;;;;;6.50;4.85;;;15.80;99.90;;;;;;4682146;30;20116;-86
2022/07/02 06:29:48;;;;;;;6.05;4.82;;;15.80;99.90;;;;;;4683975;30;20048;-85
2022/07/02 06:32:15;;;;;;;5.40;4.53;;;15.80;99.90;;;;;;4695044;30;20070;-85
2022/07/02 06:34:42;;;;;;;7.57;4.47;;;15.80;99.90;;;;;;4682019;30;20038;-86
2022/07/02 06:37:08;;;;;;;6.72;3.92;;;15.80;99.90;;;;;;4667882;30;20104;-85
2022/07/02 06:39:33;;;;;;;6.32;4.13;;;15.80;99.90;;;;;;4681836;30;20046;-85
2022/07/02 06:44:43;;;;;;;6.68;4.18;;;15.80;99.90;;;;;;4681202;30;20545;-81
2022/07/02 06:47:09;;;;;;;5.43;4.70;;;15.80;99.90;;;;;;4680353;30;20050;-83
2022/07/02 06:49:34;;;;;;;7.47;4.20;;;15.80;99.90;;;;;;4696002;30;20494;-83
2022/07/02 06:52:00;;;;;;;7.47;4.03;;;15.90;99.90;;;;;;4681301;30;20060;-83
2022/07/02 06:54:25;;;;;;;5.85;3.67;;;15.90;99.90;;;;;;4694563;30;20124;-82
2022/07/02 06:56:51;;;;;;;6.32;4.18;;;16.00;99.90;;;;;;4681399;30;20056;-82
2022/07/02 06:59:17;;;;;;;6.00;4.07;;;16.00;99.90;;;;;;4681564;30;20491;-82
2022/07/02 07:01:42;;;;;;;7.63;4.07;;;16.00;99.90;;;;;;4681559;30;20060;-84
2022/07/02 07:04:08;;;;;;;6.07;3.65;;;16.10;99.90;;;;;;4680933;30;20054;-82
2022/07/02 07:06:37;;;;;;;7.40;4.20;;;16.10;99.90;;;;;;4676709;30;20062;-82
2022/07/02 07:09:03;;;;;;;5.43;2.95;;;16.20;99.90;;;;;;4681255;30;20064;-82
2022/07/02 07:11:28;;;;;;;5.82;2.95;;;16.20;99.90;;;;;;4680463;30;20490;-82
2022/07/02 07:13:54;;;;;;;3.03;2.20;;;16.30;99.90;;;;;;4681103;30;20038;-82
2022/07/02 07:16:20;;;;;;;3.40;2.17;;;16.30;99.90;;;;;;4666468;30;20057;-82
2022/07/02 07:21:29;;;;;;;4.55;2.05;;;16.50;99.90;;;;;;4676035;30;20422;-82
2022/07/02 07:23:55;;;;;;;4.00;2.60;;;16.50;99.90;;;;;;4695226;30;20042;-83
2022/07/02 07:26:21;;;;;;;5.85;2.90;;;16.50;99.90;;;;;;4681078;30;20073;-82
2022/07/02 07:28:46;;;;;;;5.95;2.72;;;16.60;99.90;;;;;;4680469;30;20050;-83
2022/07/02 07:31:12;;;;;;;5.40;3.10;;;16.80;99.90;;;;;;4695797;30;20104;-83
2022/07/02 07:33:39;;;;;;;6.10;2.97;;;16.80;99.90;;;;;;4680780;30;20050;-83
2022/07/02 07:36:05;;;;;;;5.45;3.05;;;17.00;99.90;;;;;;4681095;30;20050;-82
2022/07/02 07:38:30;;;;;;;4.60;2.53;;;17.10;99.90;;;;;;4680662;30;20046;-82
2022/07/02 07:40:56;;;;;;;3.83;2.28;;;17.20;99.90;;;;;;4680191;30;20038;-83
2022/07/02 07:43:21;;;;;;;2.90;1.50;;;17.40;99.90;;;;;;4680780;30;20046;-83
2022/07/02 07:45:47;;;;;;;3.17;1.50;;;17.60;99.90;;;;;;4680968;30;20034;-83
2022/07/02 07:48:16;;;;;;;3.55;1.70;;;17.80;99.90;;;;;;4680516;30;20061;-82
2022/07/02 07:50:41;;;;;;;3.72;1.40;;;18.20;99.90;;;;;;4678597;30;20034;-82
2022/07/02 07:53:07;;;;;;;3.10;1.05;;;18.80;99.90;;;;;;4680625;30;20049;-83
2022/07/02 07:55:33;;;;;;;2.17;1.10;;;19.40;99.90;;;;;;4680680;30;20049;-84
2022/07/02 07:57:58;;;;;;;1.83;0.90;;;19.90;99.90;;;;;;4680444;30;20046;-85
2022/07/02 08:00:24;;;;;;;2.83;0.93;;;20.40;99.90;;;;;;4680213;30;20503;-85
2022/07/02 08:02:50;;;;;;;1.77;0.95;;;20.90;99.90;;;;;;4680341;30;20056;-84
2022/07/02 08:05:16;;;;;;;4.80;1.20;;;21.30;99.90;;;;;;4680490;30;20042;-84
2022/07/02 08:07:41;;;;;;;2.25;0.95;;;21.60;99.90;;;;;;4680122;30;20427;-82
2022/07/02 08:10:10;;;;;;;1.30;0.75;;;22.00;99.90;;;;;;4678994;30;20104;-82
2022/07/02 08:12:36;;;;;;;1.73;0.80;;;22.30;99.90;;;;;;4694834;30;20510;-82
2022/07/02 08:15:01;;;;;;;4.07;0.88;;;22.70;99.90;;;;;;4680386;30;20046;-81
2022/07/02 08:17:29;;;;;;;4.28;0.73;;;22.90;99.90;;;;;;4680272;30;20108;-82
2022/07/02 08:19:55;;;;;;;1.63;0.55;;;23.20;99.90;;;;;;4678736;30;20116;-82
2022/07/02 08:22:21;;;;;;;2.15;0.73;;;23.40;99.90;;;;;;4680204;30;20104;-82
2022/07/02 08:24:46;;;;;;;2.38;0.70;;;23.60;99.90;;;;;;4680305;30;20054;-82
2022/07/02 08:27:12;;;;;;;0.38;0.30;;;23.80;99.90;;;;;;4680218;30;20061;-82
2022/07/02 08:29:38;;;;;;;2.00;0.50;;;24.00;99.90;;;;;;4678613;30;20042;-82
2022/07/02 08:32:04;;;;;;;2.97;0.60;;;24.30;99.90;;;;;;4709160;30;20545;-82
2022/07/02 08:34:31;;;;;;;1.88;0.70;;;24.40;99.90;;;;;;4680169;30;20046;-82
2022/07/02 08:36:57;;;;;;;2.10;0.70;;;24.50;99.90;;;;;;4680216;30;20138;-82
2022/07/02 08:39:23;;;;;;;1.45;0.60;;;24.60;99.90;;;;;;4679994;30;20053;-81
2022/07/02 08:41:49;;;;;;;1.48;0.55;;;24.70;99.90;;;;;;4677191;30;20050;-82
2022/07/02 08:44:18;;;;;;;1.67;0.50;;;24.70;99.90;;;;;;4694205;30;20057;-80
2022/07/02 08:46:44;;;;;;;1.20;0.45;;;24.80;99.90;;;;;;4680039;30;20462;-82
2022/07/02 08:49:11;;;;;;;2.60;0.70;;;24.90;99.00;;;;;;4678982;30;20061;-81
2022/07/02 08:51:36;;;;;;;1.65;0.50;;;25.00;98.50;;;;;;4707757;30;20042;-81
2022/07/02 08:54:03;;;;;;;1.55;0.52;;;25.10;97.70;;;;;;4679888;30;20098;-81
2022/07/02 08:56:31;;;;;;;1.77;0.63;;;25.40;98.30;;;;;;4680101;30;20057;-84
2022/07/02 08:58:58;;;;;;;1.52;0.43;;;25.50;96.20;;;;;;4679382;30;20465;-83
2022/07/02 09:01:24;;;;;;;0.95;0.60;;;25.60;92.00;;;;;;4682755;30;20408;-86
2022/07/02 09:03:52;;;;;;;0.75;0.43;;;25.50;87.40;;;;;;4685995;30;20050;-89
2022/07/02 09:06:26;;;;;;;1.05;0.47;;;25.50;86.20;;;;;;4663800;30;20066;-87
2022/07/02 09:09:01;;;;;;;2.15;0.50;;;25.40;83.70;;;;;;4679988;30;20038;-88
2022/07/02 09:11:30;;;;;;;2.45;0.70;;;25.40;76.70;;;;;;4673591;30;20061;-88
2022/07/02 09:14:00;;;;;;;2.10;0.60;;;25.40;83.10;;;;;;4677971;30;20108;-87
2022/07/02 09:16:26;;;;;;;1.48;0.50;;;25.50;82.80;;;;;;4662338;30;20074;-88
2022/07/02 09:18:51;;;;;;;1.33;0.40;;;25.60;83.80;;;;;;4664249;30;20072;-88
2022/07/02 09:21:17;;;;;;;1.80;0.60;;;25.60;81.80;;;;;;4691031;30;20042;-87
2022/07/02 09:23:50;;;;;;;2.05;0.40;;;25.80;84.40;;;;;;4687819;30;20049;-87
2022/07/02 09:26:17;;;;;;;1.80;0.40;;;25.90;83.40;;;;;;4693833;30;20092;-88
2022/07/02 09:28:54;;;;;;;1.02;0.50;;;26.00;83.10;;;;;;4677169;30;20038;-87
2022/07/02 09:31:20;;;;;;;0.82;0.38;;;25.70;78.00;;;;;;4692057;30;20100;-88
2022/07/02 09:33:46;;;;;;;0.88;0.40;;;25.10;80.40;;;;;;4663997;30;20042;-87
2022/07/02 09:36:13;;;;;;;1.50;0.38;;;24.80;82.10;;;;;;4691082;30;20038;-87
2022/07/02 09:38:43;;;;;;;1.60;0.40;;;24.80;84.60;;;;;;4682448;30;20059;-87
2022/07/02 09:41:12;;;;;;;2.38;0.57;;;24.70;78.70;;;;;;4693873;30;20047;-86
2022/07/02 09:43:38;;;;;;;1.98;0.40;;;24.70;77.00;;;;;;4697119;30;20042;-87
2022/07/02 09:46:17;;;;;;;0.82;0.30;;;24.80;79.20;;;;;;4682893;30;20573;-86
2022/07/02 09:48:43;;;;;;;1.23;0.50;;;24.90;77.60;;;;;;4682361;30;20045;-86
2022/07/02 09:51:09;;;;;;;2.28;0.50;;;25.00;78.80;;;;;;4667898;30;20660;-88
2022/07/02 09:53:35;;;;;;;2.17;0.45;;;24.90;77.20;;;;;;4680999;30;20113;-88
2022/07/02 09:56:04;;;;;;;1.20;0.40;;;25.00;79.00;;;;;;4667363;30;20057;-87
2022/07/02 09:58:30;;;;;;;3.97;0.45;;;25.10;79.10;;;;;;4681587;30;20053;-88
2022/07/02 10:01:01;;;;;;;2.85;0.50;;;25.20;77.00;;;;;;4696082;30;20475;-88
2022/07/02 10:03:28;;;;;;;2.28;0.50;;;25.40;76.50;;;;;;4681349;30;20502;-87
2022/07/02 10:05:54;;;;;;;0.50;0.30;;;25.70;79.70;;;;;;4682508;30;20577;-88
2022/07/02 10:08:21;;;;;;;1.23;0.40;;;26.00;74.80;;;;;;4682291;30;20061;-86
2022/07/02 10:10:47;;;;;;;1.48;0.40;;;26.10;71.60;;;;;;4682788;30;20096;-87
2022/07/02 10:13:15;;;;;;;1.15;0.30;;;26.00;70.40;;;;;;4682566;30;20209;-87
2022/07/02 10:15:55;;;;;;;1.75;0.40;;;26.10;70.60;;;;;;4683450;30;20088;-87
2022/07/02 10:18:23;;;;;;;1.15;0.50;;;26.30;72.10;;;;;;4696442;30;20575;-87
2022/07/02 10:20:51;;;;;;;2.67;0.47;;;26.50;68.60;;;;;;4681773;30;20046;-88
2022/07/02 10:23:18;;;;;;;2.50;0.68;;;26.60;66.20;;;;;;4694840;30;20061;-86
2022/07/02 10:25:44;;;;;;;2.55;0.57;;;26.60;65.00;;;;;;4706010;30;20046;-84
2022/07/02 10:28:10;;;;;;;3.22;0.60;;;26.40;63.00;;;;;;4693510;30;20065;-84
2022/07/02 10:30:36;;;;;;;2.25;0.43;;;26.40;63.70;;;;;;4681757;30;20104;-86
2022/07/02 10:33:14;;;;;;;1.92;0.68;;;26.40;63.90;;;;;;4694656;30;20557;-85
2022/07/02 10:35:41;;;;;;;1.77;0.77;;;26.40;65.40;;;;;;4667289;30;20046;-87
2022/07/02 10:38:07;;;;;;;3.08;0.60;;;26.60;67.20;;;;;;4681346;30;20082;-87
2022/07/02 10:40:33;;;;;;;1.42;0.60;;;26.90;66.30;;;;;;4682154;30;20116;-86
2022/07/02 10:42:59;;;;;;;1.38;0.50;;;27.00;65.70;;;;;;4680296;30;20049;-85
2022/07/02 10:45:26;;;;;;;1.42;0.60;;;27.10;66.10;;;;;;4685503;30;20050;-85
2022/07/02 10:48:06;;;;;;;0.82;0.40;;;27.40;68.70;;;;;;4693669;30;20054;-87
2022/07/02 10:50:38;;;;;;;2.10;0.90;;;27.60;67.40;;;;;;4695683;30;20571;-87
2022/07/02 10:53:21;;;;;;;1.17;0.40;;;27.70;67.80;;;;;;4694566;30;20080;-84
2022/07/02 10:55:55;;;;;;;2.72;0.70;;;27.40;61.20;;;;;;4680701;30;20403;-84
2022/07/02 10:58:41;;;;;;;2.72;0.68;;;27.40;66.00;;;;;;4673850;30;20050;-84
2022/07/02 11:01:15;;;;;;;2.65;0.60;;;27.70;68.80;;;;;;4679462;30;20064;-84
2022/07/02 11:04:01;;;;;;;2.13;0.47;;;27.80;68.60;;;;;;4694992;30;20046;-85
2022/07/02 11:06:29;;;;;;;1.23;0.47;;;27.40;58.60;;;;;;4668150;30;20391;-84
2022/07/02 11:08:59;;;;;;;1.45;0.43;;;27.00;65.90;;;;;;4670060;30;20037;-85
2022/07/02 11:11:36;;;;;;;2.35;0.50;;;26.80;64.20;;;;;;4676730;30;20046;-85
2022/07/02 11:14:06;;;;;;;3.45;0.55;;;26.50;61.80;;;;;;4710098;30;20411;-85
2022/07/02 11:16:47;;;;;;;2.10;0.60;;;25.90;62.50;;;;;;4680874;30;20510;-85
2022/07/02 11:19:15;;;;;;;1.77;0.60;;;25.40;64.10;;;;;;4693707;30;20534;-85
2022/07/02 11:21:41;;;;;;;2.22;0.70;;;24.90;66.90;;;;;;4662611;30;20057;-81
2022/07/02 11:24:08;;;;;;;3.03;0.60;;;24.70;68.20;;;;;;4685241;30;20132;-82
2022/07/02 11:26:33;;;;;;;3.20;0.68;;;24.60;69.10;;;;;;4679876;30;20050;-84
2022/07/02 11:29:05;;;;;;;1.38;0.40;;;24.60;70.10;;;;;;4694024;30;20495;-84
2022/07/02 11:31:36;;;;;;;1.75;0.52;;;24.80;69.90;;;;;;4681471;30;20053;-83
2022/07/02 11:34:02;;;;;;;1.30;0.52;;;24.90;68.20;;;;;;4680189;30;20049;-83
2022/07/02 11:36:28;;;;;;;2.22;0.60;;;24.90;67.20;;;;;;4681093;30;20046;-84
2022/07/02 11:38:55;;;;;;;1.98;1.05;;;24.80;68.70;;;;;;4679629;30;20065;-83
2022/07/02 11:41:23;;;;;;;2.40;0.60;;;25.00;71.90;;;;;;4694682;30;20038;-83
2022/07/02 11:43:51;;;;;;;2.92;0.60;;;25.40;73.20;;;;;;4679717;30;20084;-83
2022/07/02 11:46:23;;;;;;;3.15;0.68;;;25.40;72.20;;;;;;4695144;30;20124;-84
2022/07/02 11:48:50;;;;;;;1.27;0.50;;;25.30;67.70;;;;;;4680752;30;20065;-83
2022/07/02 11:51:19;;;;;;;4.00;1.10;;;25.00;68.60;;;;;;4679834;30;20046;-84
2022/07/02 11:54:03;;;;;;;2.35;0.60;;;24.80;69.40;;;;;;4676590;30;20403;-84
2022/07/02 11:56:31;;;;;;;4.15;0.88;;;24.80;71.80;;;;;;4657899;30;20472;-81
2022/07/02 11:58:57;;;;;;;2.70;0.70;;;24.80;73.70;;;;;;4676889;30;20053;-80
2022/07/02 12:01:26;;;;;;;0.95;0.45;;;24.90;72.00;;;;;;4673316;30;20061;-83
2022/07/02 12:03:55;;;;;;;2.20;0.68;;;25.00;72.30;;;;;;4666822;30;20104;-85
2022/07/02 12:06:21;;;;;;;1.70;0.60;;;25.10;74.90;;;;;;4680692;30;20050;-83
2022/07/02 12:08:51;;;;;;;2.53;0.68;;;25.10;76.30;;;;;;4678838;30;20049;-84
2022/07/02 12:11:18;;;;;;;2.60;0.60;;;25.10;76.10;;;;;;4680194;30;20042;-84
2022/07/02 12:13:44;;;;;;;1.75;0.60;;;24.90;77.20;;;;;;4680651;30;20049;-84
2022/07/02 12:16:12;;;;;;;1.23;0.60;;;24.80;78.90;;;;;;4666313;30;20038;-84
2022/07/02 12:18:38;;;;;;;2.38;0.70;;;24.70;79.00;;;;;;4680318;30;20074;-84
2022/07/02 12:21:13;;;;;;;2.97;0.77;;;24.50;78.70;;;;;;4680031;30;20073;-84
2022/07/02 12:23:50;;;;;;;2.17;0.60;;;24.50;79.20;;;;;;4666087;30;20049;-84
2022/07/02 12:26:24;;;;;;;1.25;0.55;;;24.70;77.60;;;;;;4680362;30;21098;-84
2022/07/02 12:31:53;;;;;;;1.50;0.70;;;25.10;73.80;;;;;;4679907;30;20501;-84
2022/07/02 12:34:22;;;;;;;1.70;0.70;;;24.90;72.40;;;;;;4680306;30;20053;-84
2022/07/02 12:36:57;;;;;;;2.55;0.63;;;24.70;70.80;;;;;;4680273;30;20054;-84
2022/07/02 12:39:41;;;;;;;1.52;0.50;;;24.50;73.40;;;;;;4680219;30;20050;-84
2022/07/02 12:42:18;;;;;;;1.90;0.70;;;24.60;75.40;;;;;;4679291;30;20088;-84
2022/07/02 12:45:01;;;;;;;2.95;0.90;;;24.70;75.40;;;;;;4665698;30;20525;-82
2022/07/02 12:47:31;;;;;;;;;;;24.70;77.30;;;;;;4686220;30;20446;-83
2022/07/02 12:50:15;;;;;;;2.03;0.60;;;24.70;73.50;;;;;;4676052;30;19924;-82